sensor_id;sensor_type;location;lat;lon;timestamp;temperature;humidity
612;DHT22;293;53.888;11.464;2022-09-29T00:00:10;8.40;99.90
612;DHT22;293;53.888;11.464;2022-09-29T00:02:37;8.40;99.90
612;DHT22;293;53.888;11.464;2022-09-29T00:05:05;8.40;99.90
612;DHT22;293;53.888;11.464;2022-09-29T00:07:33;8.40;99.90
612;DHT22;293;53.888;11.464;2022-09-29T00:10:00;8.30;99.90
612;DHT22;293;53.888;11.464;2022-09-29T00:12:26;8.30;99.90
612;DHT22;293;53.888;11.464;2022-09-29T00:14:53;8.30;99.90
612;DHT22;293;53.888;11.464;2022-09-29T00:17:20;8.30;99.90
612;DHT22;293;53.888;11.464;2022-09-29T00:19:47;8.30;99.90
612;DHT22;293;53.888;11.464;2022-09-29T00:22:14;8.30;99.90
612;DHT22;293;53.888;11.464;2022-09-29T00:24:42;8.30;99.90
612;DHT22;293;53.888;11.464;2022-09-29T00:27:08;8.30;99.90
612;DHT22;293;53.888;11.464;2022-09-29T00:29:35;8.30;99.90
612;DHT22;293;53.888;11.464;2022-09-29T00:32:02;8.30;99.90
612;DHT22;293;53.888;11.464;2022-09-29T00:34:29;8.40;99.90
612;DHT22;293;53.888;11.464;2022-09-29T00:36:56;8.30;99.90
612;DHT22;293;53.888;11.464;2022-09-29T00:39:23;8.30;99.90
612;DHT22;293;53.888;11.464;2022-09-29T00:41:51;8.40;99.90
612;DHT22;293;53.888;11.464;2022-09-29T00:47:23;8.30;99.90
612;DHT22;293;53.888;11.464;2022-09-29T00:49:54;8.30;99.90
612;DHT22;293;53.888;11.464;2022-09-29T00:52:26;8.40;99.90
612;DHT22;293;53.888;11.464;2022-09-29T00:54:57;8.30;99.90
612;DHT22;293;53.888;11.464;2022-09-29T00:57:30;8.30;99.90
612;DHT22;293;53.888;11.464;2022-09-29T01:00:03;8.30;99.90
612;DHT22;293;53.888;11.464;2022-09-29T01:02:33;8.30;99.90
612;DHT22;293;53.888;11.464;2022-09-29T01:05:03;8.30;99.90
612;DHT22;293;53.888;11.464;2022-09-29T01:07:31;8.30;99.90
612;DHT22;293;53.888;11.464;2022-09-29T01:09:59;8.30;99.90
612;DHT22;293;53.888;11.464;2022-09-29T01:12:27;8.30;99.90
612;DHT22;293;53.888;11.464;2022-09-29T01:14:54;8.30;99.90
612;DHT22;293;53.888;11.464;2022-09-29T01:17:22;8.40;99.90
612;DHT22;293;53.888;11.464;2022-09-29T01:19:57;8.40;99.90
612;DHT22;293;53.888;11.464;2022-09-29T01:22:57;8.40;99.90
612;DHT22;293;53.888;11.464;2022-09-29T01:25:50;8.30;99.90
612;DHT22;293;53.888;11.464;2022-09-29T01:28:45;8.30;99.90
612;DHT22;293;53.888;11.464;2022-09-29T01:31:22;8.30;99.90
612;DHT22;293;53.888;11.464;2022-09-29T01:34:00;8.30;99.90
612;DHT22;293;53.888;11.464;2022-09-29T01:36:36;8.30;99.90
612;DHT22;293;53.888;11.464;2022-09-29T01:39:24;8.30;99.90
612;DHT22;293;53.888;11.464;2022-09-29T01:41:56;8.30;99.90
612;DHT22;293;53.888;11.464;2022-09-29T01:44:28;8.30;99.90
612;DHT22;293;53.888;11.464;2022-09-29T01:47:04;8.30;99.90
612;DHT22;293;53.888;11.464;2022-09-29T01:49:36;8.30;99.90
612;DHT22;293;53.888;11.464;2022-09-29T01:52:06;8.30;99.90
612;DHT22;293;53.888;11.464;2022-09-29T01:54:38;8.40;99.90
612;DHT22;293;53.888;11.464;2022-09-29T01:57:09;8.40;99.90
612;DHT22;293;53.888;11.464;2022-09-29T01:59:43;8.30;99.90
612;DHT22;293;53.888;11.464;2022-09-29T02:02:16;8.30;99.90
612;DHT22;293;53.888;11.464;2022-09-29T02:04:49;8.30;99.90
612;DHT22;293;53.888;11.464;2022-09-29T02:07:21;8.30;99.90
612;DHT22;293;53.888;11.464;2022-09-29T02:09:54;8.30;99.90
612;DHT22;293;53.888;11.464;2022-09-29T02:12:24;8.30;99.90
612;DHT22;293;53.888;11.464;2022-09-29T02:14:53;8.30;99.90
612;DHT22;293;53.888;11.464;2022-09-29T02:17:25;8.30;99.90
612;DHT22;293;53.888;11.464;2022-09-29T02:19:53;8.30;99.90
612;DHT22;293;53.888;11.464;2022-09-29T02:22:20;8.20;99.90
612;DHT22;293;53.888;11.464;2022-09-29T02:24:48;8.20;99.90
612;DHT22;293;53.888;11.464;2022-09-29T02:27:18;8.20;99.90
612;DHT22;293;53.888;11.464;2022-09-29T02:29:45;8.20;99.90
612;DHT22;293;53.888;11.464;2022-09-29T02:32:12;8.20;99.90
612;DHT22;293;53.888;11.464;2022-09-29T02:34:43;8.20;99.90
612;DHT22;293;53.888;11.464;2022-09-29T02:37:28;8.30;99.90
612;DHT22;293;53.888;11.464;2022-09-29T02:40:08;8.20;99.90
612;DHT22;293;53.888;11.464;2022-09-29T02:42:42;8.30;99.90
612;DHT22;293;53.888;11.464;2022-09-29T02:45:22;8.30;99.90
612;DHT22;293;53.888;11.464;2022-09-29T02:48:11;8.30;99.90
612;DHT22;293;53.888;11.464;2022-09-29T02:51:01;8.30;99.90
612;DHT22;293;53.888;11.464;2022-09-29T02:53:44;8.20;99.90
612;DHT22;293;53.888;11.464;2022-09-29T02:56:22;8.20;99.90
612;DHT22;293;53.888;11.464;2022-09-29T02:58:53;8.20;99.90
612;DHT22;293;53.888;11.464;2022-09-29T03:01:21;8.20;99.90
612;DHT22;293;53.888;11.464;2022-09-29T03:03:49;8.20;99.90
612;DHT22;293;53.888;11.464;2022-09-29T03:06:18;8.20;99.90
612;DHT22;293;53.888;11.464;2022-09-29T03:08:46;8.20;99.90
612;DHT22;293;53.888;11.464;2022-09-29T03:11:12;8.20;99.90
612;DHT22;293;53.888;11.464;2022-09-29T03:13:39;8.20;99.90
612;DHT22;293;53.888;11.464;2022-09-29T03:16:06;8.20;99.90
612;DHT22;293;53.888;11.464;2022-09-29T03:18:33;8.20;99.90
612;DHT22;293;53.888;11.464;2022-09-29T03:20:59;8.20;99.90
612;DHT22;293;53.888;11.464;2022-09-29T03:23:28;8.20;99.90
612;DHT22;293;53.888;11.464;2022-09-29T03:25:54;8.20;99.90
612;DHT22;293;53.888;11.464;2022-09-29T03:28:21;8.20;99.90
612;DHT22;293;53.888;11.464;2022-09-29T03:30:48;8.10;99.90
612;DHT22;293;53.888;11.464;2022-09-29T03:33:15;8.10;99.90
612;DHT22;293;53.888;11.464;2022-09-29T03:35:42;8.10;99.90
612;DHT22;293;53.888;11.464;2022-09-29T03:38:09;8.10;99.90
612;DHT22;293;53.888;11.464;2022-09-29T03:40:37;8.10;99.90
612;DHT22;293;53.888;11.464;2022-09-29T03:43:04;8.10;99.90
612;DHT22;293;53.888;11.464;2022-09-29T03:45:31;8.10;99.90
612;DHT22;293;53.888;11.464;2022-09-29T03:47:58;8.10;99.90
612;DHT22;293;53.888;11.464;2022-09-29T03:50:24;8.10;99.90
612;DHT22;293;53.888;11.464;2022-09-29T03:52:51;8.10;99.90
612;DHT22;293;53.888;11.464;2022-09-29T03:55:18;8.10;99.90
612;DHT22;293;53.888;11.464;2022-09-29T03:57:46;8.00;99.90
612;DHT22;293;53.888;11.464;2022-09-29T04:00:14;8.00;99.90
612;DHT22;293;53.888;11.464;2022-09-29T04:02:41;8.00;99.90
612;DHT22;293;53.888;11.464;2022-09-29T04:05:07;8.10;99.90
612;DHT22;293;53.888;11.464;2022-09-29T04:07:34;8.10;99.90
612;DHT22;293;53.888;11.464;2022-09-29T04:10:01;8.10;99.90
612;DHT22;293;53.888;11.464;2022-09-29T04:12:28;8.10;99.90
612;DHT22;293;53.888;11.464;2022-09-29T04:14:56;8.10;99.90
612;DHT22;293;53.888;11.464;2022-09-29T04:17:23;8.10;99.90
612;DHT22;293;53.888;11.464;2022-09-29T04:19:50;8.10;99.90
612;DHT22;293;53.888;11.464;2022-09-29T04:22:17;8.10;99.90
612;DHT22;293;53.888;11.464;2022-09-29T04:24:44;8.10;99.90
612;DHT22;293;53.888;11.464;2022-09-29T04:27:12;8.10;99.90
612;DHT22;293;53.888;11.464;2022-09-29T04:29:39;8.10;99.90
612;DHT22;293;53.888;11.464;2022-09-29T04:32:07;8.10;99.90
612;DHT22;293;53.888;11.464;2022-09-29T04:34:34;8.10;99.90
612;DHT22;293;53.888;11.464;2022-09-29T04:37:01;8.10;99.90
612;DHT22;293;53.888;11.464;2022-09-29T04:39:28;8.10;99.90
612;DHT22;293;53.888;11.464;2022-09-29T04:41:54;8.10;99.90
612;DHT22;293;53.888;11.464;2022-09-29T04:44:21;8.10;99.90
612;DHT22;293;53.888;11.464;2022-09-29T04:46:49;8.10;99.90
612;DHT22;293;53.888;11.464;2022-09-29T04:49:18;8.10;99.90
612;DHT22;293;53.888;11.464;2022-09-29T04:51:45;8.10;99.90
612;DHT22;293;53.888;11.464;2022-09-29T04:54:12;8.10;99.90
612;DHT22;293;53.888;11.464;2022-09-29T04:56:39;8.00;99.90
612;DHT22;293;53.888;11.464;2022-09-29T04:59:05;8.10;99.90
612;DHT22;293;53.888;11.464;2022-09-29T05:01:33;8.10;99.90
612;DHT22;293;53.888;11.464;2022-09-29T05:04:00;8.10;99.90
612;DHT22;293;53.888;11.464;2022-09-29T05:06:28;8.10;99.90
612;DHT22;293;53.888;11.464;2022-09-29T05:08:55;8.10;99.90
612;DHT22;293;53.888;11.464;2022-09-29T05:11:22;8.20;99.90
612;DHT22;293;53.888;11.464;2022-09-29T05:13:49;8.20;99.90
612;DHT22;293;53.888;11.464;2022-09-29T05:16:16;8.20;99.90
612;DHT22;293;53.888;11.464;2022-09-29T05:18:43;8.20;99.90
612;DHT22;293;53.888;11.464;2022-09-29T05:21:09;8.30;99.90
612;DHT22;293;53.888;11.464;2022-09-29T05:23:38;8.30;99.90
612;DHT22;293;53.888;11.464;2022-09-29T05:26:06;8.30;99.90
612;DHT22;293;53.888;11.464;2022-09-29T05:28:34;8.40;99.90
612;DHT22;293;53.888;11.464;2022-09-29T05:31:02;8.40;99.90
612;DHT22;293;53.888;11.464;2022-09-29T05:33:29;8.50;99.90
612;DHT22;293;53.888;11.464;2022-09-29T05:35:56;8.60;99.90
612;DHT22;293;53.888;11.464;2022-09-29T05:38:23;8.70;99.90
612;DHT22;293;53.888;11.464;2022-09-29T05:40:52;8.70;99.90
612;DHT22;293;53.888;11.464;2022-09-29T05:43:19;8.80;99.90
612;DHT22;293;53.888;11.464;2022-09-29T05:45:45;8.90;99.90
612;DHT22;293;53.888;11.464;2022-09-29T05:48:12;9.00;99.90
612;DHT22;293;53.888;11.464;2022-09-29T05:50:39;9.10;99.90
612;DHT22;293;53.888;11.464;2022-09-29T05:53:07;9.20;99.90
612;DHT22;293;53.888;11.464;2022-09-29T05:55:35;9.30;99.90
612;DHT22;293;53.888;11.464;2022-09-29T05:58:04;9.40;99.90
612;DHT22;293;53.888;11.464;2022-09-29T06:00:31;9.50;99.90
612;DHT22;293;53.888;11.464;2022-09-29T06:02:58;9.50;99.90
612;DHT22;293;53.888;11.464;2022-09-29T06:05:25;9.60;99.90
612;DHT22;293;53.888;11.464;2022-09-29T06:07:52;9.70;99.90
612;DHT22;293;53.888;11.464;2022-09-29T06:10:20;9.80;99.90
612;DHT22;293;53.888;11.464;2022-09-29T06:12:47;9.90;99.90
612;DHT22;293;53.888;11.464;2022-09-29T06:15:15;10.00;99.90
612;DHT22;293;53.888;11.464;2022-09-29T06:17:42;10.20;99.90
612;DHT22;293;53.888;11.464;2022-09-29T06:20:09;10.30;99.90
612;DHT22;293;53.888;11.464;2022-09-29T06:22:36;10.40;99.90
612;DHT22;293;53.888;11.464;2022-09-29T06:25:04;10.50;99.90
612;DHT22;293;53.888;11.464;2022-09-29T06:27:30;10.70;99.90
612;DHT22;293;53.888;11.464;2022-09-29T06:29:57;10.80;99.90
612;DHT22;293;53.888;11.464;2022-09-29T06:32:26;10.90;99.90
612;DHT22;293;53.888;11.464;2022-09-29T06:34:53;11.00;99.90
612;DHT22;293;53.888;11.464;2022-09-29T06:37:38;11.20;99.90
612;DHT22;293;53.888;11.464;2022-09-29T06:40:09;11.30;99.90
612;DHT22;293;53.888;11.464;2022-09-29T06:42:36;11.40;99.90
612;DHT22;293;53.888;11.464;2022-09-29T06:45:04;11.60;99.90
612;DHT22;293;53.888;11.464;2022-09-29T06:47:32;11.60;99.90
612;DHT22;293;53.888;11.464;2022-09-29T06:49:59;11.70;99.90
612;DHT22;293;53.888;11.464;2022-09-29T06:52:26;11.70;99.90
612;DHT22;293;53.888;11.464;2022-09-29T06:54:53;11.80;99.90
612;DHT22;293;53.888;11.464;2022-09-29T06:57:20;11.90;99.90
612;DHT22;293;53.888;11.464;2022-09-29T06:59:46;12.00;99.90
612;DHT22;293;53.888;11.464;2022-09-29T07:02:13;12.00;99.90
612;DHT22;293;53.888;11.464;2022-09-29T07:04:41;12.00;99.90
612;DHT22;293;53.888;11.464;2022-09-29T07:07:09;12.00;99.90
612;DHT22;293;53.888;11.464;2022-09-29T07:09:36;12.00;99.90
612;DHT22;293;53.888;11.464;2022-09-29T07:12:03;12.00;99.90
612;DHT22;293;53.888;11.464;2022-09-29T07:14:30;12.10;99.90
612;DHT22;293;53.888;11.464;2022-09-29T07:16:57;12.20;99.90
612;DHT22;293;53.888;11.464;2022-09-29T07:19:25;12.20;99.90
612;DHT22;293;53.888;11.464;2022-09-29T07:21:53;12.20;99.90
612;DHT22;293;53.888;11.464;2022-09-29T07:24:20;12.30;99.90
612;DHT22;293;53.888;11.464;2022-09-29T07:26:47;12.40;99.90
612;DHT22;293;53.888;11.464;2022-09-29T07:29:13;12.50;99.90
612;DHT22;293;53.888;11.464;2022-09-29T07:31:41;12.60;99.90
612;DHT22;293;53.888;11.464;2022-09-29T07:34:08;12.70;99.90
612;DHT22;293;53.888;11.464;2022-09-29T07:36:34;12.80;99.90
612;DHT22;293;53.888;11.464;2022-09-29T07:39:04;12.80;99.90
612;DHT22;293;53.888;11.464;2022-09-29T07:41:31;12.80;99.90
612;DHT22;293;53.888;11.464;2022-09-29T07:43:58;12.90;99.90
612;DHT22;293;53.888;11.464;2022-09-29T07:46:25;12.90;99.90
612;DHT22;293;53.888;11.464;2022-09-29T07:48:52;13.10;99.90
612;DHT22;293;53.888;11.464;2022-09-29T07:51:19;13.10;99.90
612;DHT22;293;53.888;11.464;2022-09-29T07:53:46;13.20;99.90
612;DHT22;293;53.888;11.464;2022-09-29T07:56:15;13.30;99.90
612;DHT22;293;53.888;11.464;2022-09-29T07:58:43;13.30;99.90
612;DHT22;293;53.888;11.464;2022-09-29T08:01:11;13.40;99.90
612;DHT22;293;53.888;11.464;2022-09-29T08:03:42;13.40;99.90
612;DHT22;293;53.888;11.464;2022-09-29T08:06:11;13.50;99.90
612;DHT22;293;53.888;11.464;2022-09-29T08:08:39;13.60;99.90
612;DHT22;293;53.888;11.464;2022-09-29T08:11:08;13.60;99.90
612;DHT22;293;53.888;11.464;2022-09-29T08:13:37;13.80;99.90
612;DHT22;293;53.888;11.464;2022-09-29T08:16:06;13.90;99.90
612;DHT22;293;53.888;11.464;2022-09-29T08:18:34;14.00;99.90
612;DHT22;293;53.888;11.464;2022-09-29T08:21:01;14.10;99.90
612;DHT22;293;53.888;11.464;2022-09-29T08:23:28;14.20;99.90
612;DHT22;293;53.888;11.464;2022-09-29T08:26:00;14.30;99.90
612;DHT22;293;53.888;11.464;2022-09-29T08:28:28;14.40;99.90
612;DHT22;293;53.888;11.464;2022-09-29T08:30:56;14.50;99.90
612;DHT22;293;53.888;11.464;2022-09-29T08:33:23;14.70;99.90
612;DHT22;293;53.888;11.464;2022-09-29T08:35:54;14.90;99.90
612;DHT22;293;53.888;11.464;2022-09-29T08:38:22;14.90;99.90
612;DHT22;293;53.888;11.464;2022-09-29T08:40:49;15.00;99.90
612;DHT22;293;53.888;11.464;2022-09-29T08:43:20;15.10;99.90
612;DHT22;293;53.888;11.464;2022-09-29T08:45:54;15.20;99.90
612;DHT22;293;53.888;11.464;2022-09-29T08:48:27;15.30;99.90
612;DHT22;293;53.888;11.464;2022-09-29T08:50:57;15.30;99.90
612;DHT22;293;53.888;11.464;2022-09-29T08:53:26;15.40;99.90
612;DHT22;293;53.888;11.464;2022-09-29T08:55:56;15.40;99.90
612;DHT22;293;53.888;11.464;2022-09-29T08:58:24;15.40;99.90
612;DHT22;293;53.888;11.464;2022-09-29T09:01:02;15.50;99.90
612;DHT22;293;53.888;11.464;2022-09-29T09:04:02;15.50;99.90
612;DHT22;293;53.888;11.464;2022-09-29T09:06:46;15.60;99.90
612;DHT22;293;53.888;11.464;2022-09-29T09:09:39;15.50;99.90
612;DHT22;293;53.888;11.464;2022-09-29T09:12:23;15.50;99.90
612;DHT22;293;53.888;11.464;2022-09-29T09:15:05;15.50;99.90
612;DHT22;293;53.888;11.464;2022-09-29T09:17:49;15.50;99.60
612;DHT22;293;53.888;11.464;2022-09-29T09:20:27;15.60;99.70
612;DHT22;293;53.888;11.464;2022-09-29T09:22:59;15.70;99.70
612;DHT22;293;53.888;11.464;2022-09-29T09:25:29;15.70;99.60
612;DHT22;293;53.888;11.464;2022-09-29T09:28:04;15.70;99.70
612;DHT22;293;53.888;11.464;2022-09-29T09:30:37;15.70;99.50
612;DHT22;293;53.888;11.464;2022-09-29T09:33:10;15.70;99.20
612;DHT22;293;53.888;11.464;2022-09-29T09:35:43;15.70;98.80
612;DHT22;293;53.888;11.464;2022-09-29T09:38:14;15.80;98.80
612;DHT22;293;53.888;11.464;2022-09-29T09:40:44;15.70;98.10
612;DHT22;293;53.888;11.464;2022-09-29T09:43:16;15.70;98.30
612;DHT22;293;53.888;11.464;2022-09-29T09:45:47;15.70;98.20
612;DHT22;293;53.888;11.464;2022-09-29T09:48:19;15.80;98.00
612;DHT22;293;53.888;11.464;2022-09-29T09:50:48;15.80;97.90
612;DHT22;293;53.888;11.464;2022-09-29T09:53:19;15.80;98.10
612;DHT22;293;53.888;11.464;2022-09-29T09:55:57;16.00;98.10
612;DHT22;293;53.888;11.464;2022-09-29T09:58:42;16.20;98.10
612;DHT22;293;53.888;11.464;2022-09-29T10:01:14;16.30;98.00
612;DHT22;293;53.888;11.464;2022-09-29T10:03:42;16.50;97.80
612;DHT22;293;53.888;11.464;2022-09-29T10:06:10;16.60;97.30
612;DHT22;293;53.888;11.464;2022-09-29T10:08:38;16.60;96.80
612;DHT22;293;53.888;11.464;2022-09-29T10:11:20;16.60;96.50
612;DHT22;293;53.888;11.464;2022-09-29T10:13:51;16.60;96.30
612;DHT22;293;53.888;11.464;2022-09-29T10:16:27;16.60;96.30
612;DHT22;293;53.888;11.464;2022-09-29T10:18:54;16.60;95.90
612;DHT22;293;53.888;11.464;2022-09-29T10:21:34;16.50;95.70
612;DHT22;293;53.888;11.464;2022-09-29T10:24:02;16.30;96.00
612;DHT22;293;53.888;11.464;2022-09-29T10:26:34;16.30;95.90
612;DHT22;293;53.888;11.464;2022-09-29T10:29:15;16.30;96.20
612;DHT22;293;53.888;11.464;2022-09-29T10:31:57;16.30;96.50
612;DHT22;293;53.888;11.464;2022-09-29T10:34:24;16.20;96.20
612;DHT22;293;53.888;11.464;2022-09-29T10:36:54;16.20;96.40
612;DHT22;293;53.888;11.464;2022-09-29T10:39:33;16.00;96.10
612;DHT22;293;53.888;11.464;2022-09-29T10:42:15;15.90;96.20
612;DHT22;293;53.888;11.464;2022-09-29T10:44:42;15.90;96.20
612;DHT22;293;53.888;11.464;2022-09-29T10:47:15;15.90;95.90
612;DHT22;293;53.888;11.464;2022-09-29T10:49:41;15.80;96.00
612;DHT22;293;53.888;11.464;2022-09-29T10:52:21;15.80;96.20
612;DHT22;293;53.888;11.464;2022-09-29T10:54:54;15.80;96.30
612;DHT22;293;53.888;11.464;2022-09-29T10:57:25;15.70;96.40
612;DHT22;293;53.888;11.464;2022-09-29T10:59:53;15.70;96.40
612;DHT22;293;53.888;11.464;2022-09-29T11:02:24;15.60;96.10
612;DHT22;293;53.888;11.464;2022-09-29T11:04:53;15.50;96.10
612;DHT22;293;53.888;11.464;2022-09-29T11:07:23;15.40;96.10
612;DHT22;293;53.888;11.464;2022-09-29T11:09:50;15.20;96.40
612;DHT22;293;53.888;11.464;2022-09-29T11:12:28;15.20;96.50
612;DHT22;293;53.888;11.464;2022-09-29T11:14:56;15.10;96.80
612;DHT22;293;53.888;11.464;2022-09-29T11:17:26;15.00;96.90
612;DHT22;293;53.888;11.464;2022-09-29T11:19:55;15.00;97.20
612;DHT22;293;53.888;11.464;2022-09-29T11:22:35;14.90;97.30
612;DHT22;293;53.888;11.464;2022-09-29T11:25:25;15.00;97.40
612;DHT22;293;53.888;11.464;2022-09-29T11:28:05;15.00;97.20
612;DHT22;293;53.888;11.464;2022-09-29T11:30:47;14.90;97.00
612;DHT22;293;53.888;11.464;2022-09-29T11:33:25;15.00;97.30
612;DHT22;293;53.888;11.464;2022-09-29T11:35:59;15.10;97.40
612;DHT22;293;53.888;11.464;2022-09-29T11:38:47;15.20;97.40
612;DHT22;293;53.888;11.464;2022-09-29T11:41:37;15.30;97.30
612;DHT22;293;53.888;11.464;2022-09-29T11:44:24;15.40;97.50
612;DHT22;293;53.888;11.464;2022-09-29T11:47:03;15.50;97.30
612;DHT22;293;53.888;11.464;2022-09-29T11:52:38;15.60;97.40
612;DHT22;293;53.888;11.464;2022-09-29T11:55:24;15.70;97.30
612;DHT22;293;53.888;11.464;2022-09-29T11:58:04;15.80;97.30
612;DHT22;293;53.888;11.464;2022-09-29T12:00:46;16.00;97.50
612;DHT22;293;53.888;11.464;2022-09-29T12:03:30;16.20;97.50
612;DHT22;293;53.888;11.464;2022-09-29T12:06:26;16.30;97.00
612;DHT22;293;53.888;11.464;2022-09-29T12:09:04;16.40;96.60
612;DHT22;293;53.888;11.464;2022-09-29T12:11:40;16.50;96.60
612;DHT22;293;53.888;11.464;2022-09-29T12:14:14;16.60;96.50
612;DHT22;293;53.888;11.464;2022-09-29T12:16:49;16.60;96.20
612;DHT22;293;53.888;11.464;2022-09-29T12:19:20;16.60;96.10
612;DHT22;293;53.888;11.464;2022-09-29T12:21:50;16.50;95.80
612;DHT22;293;53.888;11.464;2022-09-29T12:24:31;16.50;95.50
612;DHT22;293;53.888;11.464;2022-09-29T12:27:03;16.40;95.50
612;DHT22;293;53.888;11.464;2022-09-29T12:29:33;16.40;95.80
612;DHT22;293;53.888;11.464;2022-09-29T12:32:04;16.30;95.40
612;DHT22;293;53.888;11.464;2022-09-29T12:34:39;16.20;95.20
612;DHT22;293;53.888;11.464;2022-09-29T12:37:12;16.10;95.50
612;DHT22;293;53.888;11.464;2022-09-29T12:39:45;16.00;95.80
612;DHT22;293;53.888;11.464;2022-09-29T12:42:28;16.00;96.00
612;DHT22;293;53.888;11.464;2022-09-29T12:45:01;15.90;96.20
612;DHT22;293;53.888;11.464;2022-09-29T12:47:43;15.90;96.50
612;DHT22;293;53.888;11.464;2022-09-29T12:50:17;15.90;96.70
612;DHT22;293;53.888;11.464;2022-09-29T12:52:48;15.70;96.40
612;DHT22;293;53.888;11.464;2022-09-29T12:55:23;15.60;96.70
612;DHT22;293;53.888;11.464;2022-09-29T12:57:56;15.50;96.60
612;DHT22;293;53.888;11.464;2022-09-29T13:00:24;15.60;96.80
612;DHT22;293;53.888;11.464;2022-09-29T13:03:21;15.50;96.80
612;DHT22;293;53.888;11.464;2022-09-29T13:09:04;15.40;96.90
612;DHT22;293;53.888;11.464;2022-09-29T13:11:58;15.30;96.90
612;DHT22;293;53.888;11.464;2022-09-29T13:14:57;15.30;96.80
612;DHT22;293;53.888;11.464;2022-09-29T13:17:40;15.20;96.90
612;DHT22;293;53.888;11.464;2022-09-29T13:20:33;15.20;97.10
612;DHT22;293;53.888;11.464;2022-09-29T13:23:24;15.20;97.10
612;DHT22;293;53.888;11.464;2022-09-29T13:26:02;15.20;97.10
612;DHT22;293;53.888;11.464;2022-09-29T13:28:35;15.20;97.20
612;DHT22;293;53.888;11.464;2022-09-29T13:31:07;15.10;97.10
612;DHT22;293;53.888;11.464;2022-09-29T13:33:37;15.20;97.50
612;DHT22;293;53.888;11.464;2022-09-29T13:36:04;15.30;97.50
612;DHT22;293;53.888;11.464;2022-09-29T13:38:32;15.40;97.60
612;DHT22;293;53.888;11.464;2022-09-29T13:41:31;15.40;97.60
612;DHT22;293;53.888;11.464;2022-09-29T13:44:05;15.40;97.40
612;DHT22;293;53.888;11.464;2022-09-29T13:46:38;15.40;97.30
612;DHT22;293;53.888;11.464;2022-09-29T13:49:15;15.40;97.30
612;DHT22;293;53.888;11.464;2022-09-29T13:51:49;15.40;97.20
612;DHT22;293;53.888;11.464;2022-09-29T13:54:24;15.40;97.40
612;DHT22;293;53.888;11.464;2022-09-29T13:59:43;15.50;97.60
612;DHT22;293;53.888;11.464;2022-09-29T14:02:29;15.50;97.70
612;DHT22;293;53.888;11.464;2022-09-29T14:04:56;15.50;97.90
612;DHT22;293;53.888;11.464;2022-09-29T14:07:40;15.50;98.00
612;DHT22;293;53.888;11.464;2022-09-29T14:10:20;15.50;98.20
612;DHT22;293;53.888;11.464;2022-09-29T14:12:54;15.40;98.30
612;DHT22;293;53.888;11.464;2022-09-29T14:15:23;15.40;98.40
612;DHT22;293;53.888;11.464;2022-09-29T14:17:54;15.40;98.60
612;DHT22;293;53.888;11.464;2022-09-29T14:20:24;15.40;98.90
612;DHT22;293;53.888;11.464;2022-09-29T14:22:56;15.40;98.90
612;DHT22;293;53.888;11.464;2022-09-29T14:28:12;15.30;98.80
612;DHT22;293;53.888;11.464;2022-09-29T14:30:45;15.20;98.80
612;DHT22;293;53.888;11.464;2022-09-29T14:33:19;15.20;99.00
612;DHT22;293;53.888;11.464;2022-09-29T14:36:00;15.10;99.10
612;DHT22;293;53.888;11.464;2022-09-29T14:38:29;15.10;99.30
612;DHT22;293;53.888;11.464;2022-09-29T14:40:58;15.00;99.80
612;DHT22;293;53.888;11.464;2022-09-29T14:43:36;14.90;99.90
612;DHT22;293;53.888;11.464;2022-09-29T14:53:01;14.60;99.90
612;DHT22;293;53.888;11.464;2022-09-29T14:55:40;14.50;99.90
612;DHT22;293;53.888;11.464;2022-09-29T14:58:29;14.40;99.90
612;DHT22;293;53.888;11.464;2022-09-29T15:01:06;14.30;99.90
612;DHT22;293;53.888;11.464;2022-09-29T15:03:42;14.30;99.90
612;DHT22;293;53.888;11.464;2022-09-29T15:06:12;14.20;99.90
612;DHT22;293;53.888;11.464;2022-09-29T15:08:42;14.20;99.90
612;DHT22;293;53.888;11.464;2022-09-29T15:11:27;14.20;99.90
612;DHT22;293;53.888;11.464;2022-09-29T15:13:54;14.20;99.90
612;DHT22;293;53.888;11.464;2022-09-29T15:16:27;14.20;99.90
612;DHT22;293;53.888;11.464;2022-09-29T15:19:16;14.20;99.90
612;DHT22;293;53.888;11.464;2022-09-29T15:21:52;14.20;99.90
612;DHT22;293;53.888;11.464;2022-09-29T15:24:39;14.20;99.90
612;DHT22;293;53.888;11.464;2022-09-29T15:27:12;14.20;99.90
612;DHT22;293;53.888;11.464;2022-09-29T15:29:44;14.20;99.90
612;DHT22;293;53.888;11.464;2022-09-29T15:32:20;14.20;99.90
612;DHT22;293;53.888;11.464;2022-09-29T15:34:48;14.20;99.90
612;DHT22;293;53.888;11.464;2022-09-29T15:37:16;14.20;99.90
612;DHT22;293;53.888;11.464;2022-09-29T15:39:47;14.20;99.90
612;DHT22;293;53.888;11.464;2022-09-29T15:42:17;14.10;99.90
612;DHT22;293;53.888;11.464;2022-09-29T15:44:52;14.10;99.90
612;DHT22;293;53.888;11.464;2022-09-29T15:47:25;14.10;99.90
612;DHT22;293;53.888;11.464;2022-09-29T15:49:53;14.10;99.90
612;DHT22;293;53.888;11.464;2022-09-29T15:52:20;14.00;99.90
612;DHT22;293;53.888;11.464;2022-09-29T15:54:53;14.00;99.90
612;DHT22;293;53.888;11.464;2022-09-29T15:57:40;14.00;99.90
612;DHT22;293;53.888;11.464;2022-09-29T16:03:22;13.90;99.90
612;DHT22;293;53.888;11.464;2022-09-29T16:05:59;13.90;99.90
612;DHT22;293;53.888;11.464;2022-09-29T16:08:27;13.90;99.90
612;DHT22;293;53.888;11.464;2022-09-29T16:10:59;13.90;99.90
612;DHT22;293;53.888;11.464;2022-09-29T16:13:28;13.80;99.90
612;DHT22;293;53.888;11.464;2022-09-29T16:15:59;13.70;99.90
612;DHT22;293;53.888;11.464;2022-09-29T16:18:30;13.70;99.90
612;DHT22;293;53.888;11.464;2022-09-29T16:20:59;13.70;99.90
612;DHT22;293;53.888;11.464;2022-09-29T16:23:35;13.60;99.90
612;DHT22;293;53.888;11.464;2022-09-29T16:26:17;13.60;99.90
612;DHT22;293;53.888;11.464;2022-09-29T16:31:47;13.50;99.90
612;DHT22;293;53.888;11.464;2022-09-29T16:34:23;13.50;99.90
612;DHT22;293;53.888;11.464;2022-09-29T16:36:51;13.50;99.90
612;DHT22;293;53.888;11.464;2022-09-29T16:39:19;13.50;99.90
612;DHT22;293;53.888;11.464;2022-09-29T16:41:49;13.40;99.90
612;DHT22;293;53.888;11.464;2022-09-29T16:44:22;13.40;99.90
612;DHT22;293;53.888;11.464;2022-09-29T16:46:52;13.30;99.90
612;DHT22;293;53.888;11.464;2022-09-29T16:49:22;13.20;99.90
612;DHT22;293;53.888;11.464;2022-09-29T16:51:51;13.20;99.90
612;DHT22;293;53.888;11.464;2022-09-29T16:54:22;13.10;99.90
612;DHT22;293;53.888;11.464;2022-09-29T16:57:13;13.10;99.90
612;DHT22;293;53.888;11.464;2022-09-29T16:59:43;13.10;99.90
612;DHT22;293;53.888;11.464;2022-09-29T17:02:10;13.00;99.90
612;DHT22;293;53.888;11.464;2022-09-29T17:04:37;13.00;99.90
612;DHT22;293;53.888;11.464;2022-09-29T17:07:04;12.90;99.90
612;DHT22;293;53.888;11.464;2022-09-29T17:09:32;12.90;99.90
612;DHT22;293;53.888;11.464;2022-09-29T17:12:00;12.90;99.90
612;DHT22;293;53.888;11.464;2022-09-29T17:14:28;12.80;99.90
612;DHT22;293;53.888;11.464;2022-09-29T17:16:56;12.70;99.90
612;DHT22;293;53.888;11.464;2022-09-29T17:19:23;12.70;99.90
612;DHT22;293;53.888;11.464;2022-09-29T17:21:52;12.70;99.90